Terminal Aerodrome Forecast
Issued by NWS

Home | Current Version | Previous Version | Text Only | Print | Product List | Glossary On
Versions: 1 2 3 4 5 6 7 8 9 10 11 12 13 14 15 16 17 18
757
FTUS42 KKEY 211735 AAB
TAFMTH
TAF AMD
KMTH 211735Z 2118/2212 19008G17KT P6SM FEW030
     FM212300 16006KT P6SM SCT028 BKN050
     FM220300 18014KT P6SM SCT028 BKN050=

USA.gov is the U.S. government's official web portal to all federal, state and local government web resources and services.